createdAt,value
2018-05-25T00:05:44.456Z,78.85
2018-05-25T00:11:49.120Z,79.09
2018-05-25T00:17:54.242Z,80.39
2018-05-25T00:23:58.874Z,81.10
2018-05-25T00:30:03.991Z,81.15
2018-05-25T00:36:08.402Z,81.90
2018-05-25T00:42:12.764Z,82.51
2018-05-25T00:48:17.143Z,82.27
2018-05-25T00:54:21.627Z,82.56
2018-05-25T01:00:27.053Z,82.60
2018-05-25T01:06:31.428Z,82.64
2018-05-25T01:12:35.821Z,82.17
2018-05-25T01:18:40.231Z,82.16
2018-05-25T01:24:44.606Z,83.33
2018-05-25T01:30:49.739Z,82.94
2018-05-25T01:36:55.274Z,82.72
2018-05-25T01:42:59.650Z,83.19
2018-05-25T01:49:04.853Z,82.76
2018-05-25T01:55:09.263Z,81.63
2018-05-25T02:01:13.609Z,82.34
2018-05-25T02:07:17.956Z,81.29
2018-05-25T02:13:22.573Z,82.49
2018-05-25T02:19:26.908Z,82.78
2018-05-25T02:25:32.153Z,82.57
2018-05-25T02:31:36.568Z,82.95
2018-05-25T02:37:40.924Z,82.89
2018-05-25T02:43:45.294Z,82.81
2018-05-25T02:49:50.193Z,82.44
2018-05-25T02:55:54.762Z,82.74
2018-05-25T03:01:59.304Z,82.70
2018-05-25T03:08:03.698Z,81.99
2018-05-25T03:14:08.059Z,83.32
2018-05-25T03:20:12.474Z,83.41
2018-05-25T03:26:17.681Z,83.71
2018-05-25T03:32:23.763Z,83.11
2018-05-25T03:38:28.172Z,83.56
2018-05-25T03:44:32.535Z,83.48
2018-05-25T03:50:36.886Z,83.03
2018-05-25T03:56:41.236Z,82.37
2018-05-25T04:02:45.666Z,81.95
2018-05-25T04:08:50.432Z,82.04
2018-05-25T04:14:55.820Z,82.35
2018-05-25T04:21:00.170Z,82.59
2018-05-25T04:27:05.429Z,82.19
2018-05-25T04:33:09.776Z,82.04
2018-05-25T04:39:14.157Z,82.22
2018-05-25T04:45:18.516Z,80.82
2018-05-25T04:51:23.408Z,80.17
2018-05-25T04:57:28.589Z,79.24
2018-05-25T05:03:33.051Z,79.77
2018-05-25T05:09:37.399Z,79.48
2018-05-25T05:15:41.851Z,79.42
2018-05-25T05:21:46.186Z,80.30
2018-05-25T05:27:50.657Z,79.90
2018-05-25T05:33:55.472Z,78.76
2018-05-25T05:40:00.657Z,78.24
2018-05-25T05:46:05.029Z,78.92
2018-05-25T05:52:09.445Z,78.31
2018-05-25T05:58:13.807Z,77.63
2018-05-25T06:04:18.154Z,76.27
2018-05-25T06:10:23.007Z,73.42
2018-05-25T06:16:27.427Z,72.99
2018-05-25T06:22:31.920Z,71.77
2018-05-25T06:28:36.330Z,68.53
2018-05-25T06:34:41.459Z,66.49
2018-05-25T06:40:45.840Z,63.82
2018-05-25T06:46:50.434Z,64.35
2018-05-25T06:52:55.321Z,61.87
2018-05-25T06:58:59.809Z,59.88
2018-05-25T07:05:04.175Z,61.86
2018-05-25T07:11:08.560Z,59.19
2018-05-25T07:17:12.926Z,59.51
2018-05-25T07:23:17.374Z,60.21
2018-05-25T07:29:24.398Z,57.98
2018-05-25T07:35:28.776Z,56.69
2018-05-25T07:41:34.137Z,56.42
2018-05-25T07:47:39.685Z,56.72
2018-05-25T07:53:44.086Z,57.27
2018-05-25T07:59:48.544Z,56.23
2018-05-25T08:05:53.467Z,53.46
2018-05-25T08:11:58.637Z,55.16
2018-05-25T08:18:03.010Z,55.86
2018-05-25T08:24:07.486Z,56.79
2018-05-25T08:30:11.996Z,55.41
2018-05-25T08:36:16.394Z,56.37
2018-05-25T08:42:21.045Z,54.97
2018-05-25T08:48:25.381Z,58.67
2018-05-25T08:54:29.736Z,60.57
2018-05-25T09:00:34.182Z,61.13
2018-05-25T09:06:38.528Z,59.75
2018-05-25T09:12:44.415Z,61.42
2018-05-25T09:18:48.921Z,62.36
2018-05-25T09:24:54.267Z,62.62
2018-05-25T09:30:58.639Z,61.98
2018-05-25T09:37:03.764Z,62.01
2018-05-25T09:43:08.116Z,62.94
2018-05-25T09:49:13.311Z,64.11
2018-05-25T09:55:17.833Z,66.14
2018-05-25T10:01:22.609Z,66.79
2018-05-25T10:07:27.116Z,66.09
2018-05-25T10:13:31.486Z,65.18
2018-05-25T10:19:37.466Z,64.74
2018-05-25T10:25:41.963Z,66.18
2018-05-25T10:31:46.367Z,65.99
2018-05-25T10:37:52.186Z,63.15
2018-05-25T10:43:56.648Z,61.00
2018-05-25T10:50:01.007Z,57.78
2018-05-25T10:56:05.368Z,54.62
2018-05-25T11:02:09.739Z,53.58
2018-05-25T11:08:14.100Z,51.33
2018-05-25T11:14:18.452Z,46.68
2018-05-25T11:20:22.882Z,41.51
2018-05-25T11:26:27.264Z,45.31
2018-05-25T11:32:31.641Z,45.87
2018-05-25T11:38:35.997Z,43.21
2018-05-25T11:44:40.354Z,44.81
2018-05-25T11:50:44.705Z,45.38
2018-05-25T11:56:49.066Z,46.70
2018-05-25T12:02:53.669Z,46.71
2018-05-25T12:08:58.083Z,48.39
2018-05-25T12:15:02.599Z,49.53
2018-05-25T12:21:07.004Z,49.20
2018-05-25T12:27:11.375Z,51.13
2018-05-25T12:33:15.860Z,50.18
2018-05-25T12:39:20.573Z,51.23
2018-05-25T12:45:25.829Z,50.70
2018-05-25T12:51:30.202Z,52.39
2018-05-25T12:57:34.556Z,52.11
2018-05-25T13:03:38.920Z,51.10
2018-05-25T13:09:44.047Z,45.04
2018-05-25T13:15:48.405Z,44.05
2018-05-25T13:21:53.284Z,43.47
2018-05-25T13:27:57.641Z,43.93
2018-05-25T13:34:02.889Z,42.83
2018-05-25T13:40:07.315Z,43.37
2018-05-25T13:46:12.457Z,44.92
2018-05-25T13:52:16.833Z,47.42
2018-05-25T13:58:21.480Z,45.41
2018-05-25T14:04:25.840Z,47.65
2018-05-25T14:10:30.977Z,48.33
2018-05-25T14:16:35.394Z,44.56
2018-05-25T14:22:39.828Z,40.98
2018-05-25T14:28:44.246Z,42.76
2018-05-25T14:34:48.969Z,41.87
2018-05-25T14:40:53.865Z,42.62
2018-05-25T14:46:58.270Z,43.51
2018-05-25T14:53:02.688Z,45.93
2018-05-25T14:59:07.437Z,43.95
2018-05-25T15:05:11.727Z,45.09
2018-05-25T15:11:16.317Z,45.90
2018-05-25T15:17:20.960Z,50.09
2018-05-25T15:23:25.441Z,50.52
2018-05-25T15:29:29.848Z,52.94
2018-05-25T15:35:34.217Z,54.00
2018-05-25T15:41:40.151Z,55.83
2018-05-25T15:47:45.309Z,56.07
2018-05-25T15:53:50.102Z,53.23
2018-05-25T15:59:54.625Z,53.02
2018-05-25T16:05:58.978Z,52.50
2018-05-25T16:12:03.336Z,50.97
2018-05-25T16:18:08.476Z,51.97
2018-05-25T16:24:12.832Z,52.05
2018-05-25T16:30:17.337Z,51.81
2018-05-25T16:36:22.351Z,52.46
2018-05-25T16:42:26.708Z,53.04
2018-05-25T16:48:31.074Z,53.61
2018-05-25T16:54:35.443Z,54.24
2018-05-25T17:00:39.795Z,54.95
2018-05-25T17:06:44.240Z,55.16
2018-05-25T17:12:50.908Z,55.78
2018-05-25T17:18:55.274Z,56.45
2018-05-25T17:24:59.642Z,55.94
2018-05-25T17:31:04.001Z,57.51
2018-05-25T17:37:09.130Z,58.43
2018-05-25T17:43:13.526Z,59.14
2018-05-25T17:49:17.872Z,61.13
2018-05-25T17:55:22.909Z,61.78
2018-05-25T18:01:27.296Z,62.71
2018-05-25T18:07:31.632Z,62.99
2018-05-25T18:13:36.012Z,63.34
2018-05-25T18:19:40.376Z,65.07
2018-05-25T18:25:44.724Z,65.15
2018-05-25T18:31:49.081Z,66.13
2018-05-25T18:37:54.240Z,67.09
2018-05-25T18:43:58.617Z,68.56
2018-05-25T18:50:03.839Z,68.73
2018-05-25T18:56:08.957Z,69.32
2018-05-25T19:02:13.313Z,69.80
2018-05-25T19:08:18.447Z,69.90
2018-05-25T19:14:23.679Z,70.91
2018-05-25T19:20:28.815Z,70.39
2018-05-25T19:26:33.164Z,70.49
2018-05-25T19:32:38.352Z,70.61
2018-05-25T19:38:43.523Z,70.80
2018-05-25T19:44:47.885Z,70.63
2018-05-25T19:50:52.528Z,70.81
2018-05-25T19:56:56.970Z,71.04
2018-05-25T20:03:01.422Z,71.86
2018-05-25T20:09:06.693Z,71.93
2018-05-25T20:15:11.101Z,71.87
2018-05-25T20:21:15.460Z,72.02
2018-05-25T20:27:20.117Z,72.07
2018-05-25T20:33:24.527Z,71.92
2018-05-25T20:39:28.901Z,71.66
2018-05-25T20:45:33.245Z,72.00
2018-05-25T20:51:37.778Z,72.69
2018-05-25T20:57:42.924Z,73.10
2018-05-25T21:03:47.280Z,72.93
2018-05-25T21:09:52.984Z,73.47
2018-05-25T21:15:58.201Z,73.33
2018-05-25T21:22:02.609Z,73.91
2018-05-25T21:28:06.922Z,74.14
2018-05-25T21:34:11.299Z,74.44
2018-05-25T21:40:15.641Z,75.33
2018-05-25T21:46:20.070Z,76.76
2018-05-25T21:52:24.593Z,75.35
2018-05-25T21:58:28.913Z,75.57
2018-05-25T22:04:33.270Z,76.64
2018-05-25T22:10:37.654Z,78.85
2018-05-25T22:16:42.049Z,80.66
2018-05-25T22:22:46.413Z,78.53
2018-05-25T22:28:51.392Z,78.27
2018-05-25T22:34:55.793Z,77.91
2018-05-25T22:41:00.160Z,78.19
2018-05-25T22:47:22.372Z,78.92
2018-05-25T22:53:38.191Z,78.20
2018-05-25T22:59:42.552Z,77.17
2018-05-25T23:05:46.914Z,76.88
2018-05-25T23:11:52.391Z,76.23
2018-05-25T23:17:56.824Z,75.19
2018-05-25T23:24:01.341Z,75.10
2018-05-25T23:30:06.469Z,74.50
2018-05-25T23:36:10.828Z,75.11
2018-05-25T23:42:15.954Z,76.68
2018-05-25T23:48:21.508Z,76.08
2018-05-25T23:54:26.050Z,75.66
